createdAt,value
2022-11-04T00:01:09.458Z,99856.19
2022-11-04T00:03:40.429Z,99857.08
2022-11-04T00:06:11.352Z,99861.43
2022-11-04T00:08:42.237Z,99863.08
2022-11-04T00:11:30.852Z,99864.86
2022-11-04T00:14:01.873Z,99861.36
2022-11-04T00:16:50.626Z,99860.58
2022-11-04T00:19:21.512Z,99860.69
2022-11-04T00:22:10.448Z,99864.10
2022-11-04T00:24:45.749Z,99862.42
2022-11-04T00:27:38.739Z,99862.48
2022-11-04T00:30:10.604Z,99858.17
2022-11-04T00:32:59.048Z,99859.92
2022-11-04T00:35:29.925Z,99856.45
2022-11-04T00:38:01.875Z,99853.84
2022-11-04T00:40:33.032Z,99847.80
2022-11-04T00:43:03.873Z,99855.52
2022-11-04T00:45:34.762Z,99847.76
2022-11-04T00:48:06.463Z,99855.49
2022-11-04T00:50:37.668Z,99849.44
2022-11-04T00:53:08.949Z,99849.42
2022-11-04T00:55:40.270Z,99850.23
2022-11-04T00:58:11.197Z,99849.36
2022-11-04T01:00:42.363Z,99838.18
2022-11-04T01:03:13.818Z,99838.97
2022-11-04T01:05:45.182Z,99843.26
2022-11-04T01:08:16.098Z,99844.92
2022-11-04T01:10:47.808Z,99843.20
2022-11-04T01:13:18.776Z,99834.58
2022-11-04T01:15:49.821Z,99836.30
2022-11-04T01:18:20.601Z,99835.41
2022-11-04T01:20:51.430Z,99830.16
2022-11-04T01:23:22.592Z,99828.44
2022-11-04T01:25:53.717Z,99826.75
2022-11-04T01:28:24.589Z,99829.29
2022-11-04T01:30:55.329Z,99829.22
2022-11-04T01:33:26.597Z,99843.88
2022-11-04T01:35:58.993Z,99830.11
2022-11-04T01:38:30.392Z,99834.46
2022-11-04T01:41:01.768Z,99830.97
2022-11-04T01:43:34.210Z,99834.37
2022-11-04T01:46:05.266Z,99848.98
2022-11-04T01:48:36.250Z,99848.17
2022-11-04T01:51:08.029Z,99851.66
2022-11-04T01:53:40.279Z,99849.98
2022-11-04T01:56:12.692Z,99839.63
2022-11-04T01:58:45.366Z,99851.72
2022-11-04T02:01:16.420Z,99836.19
2022-11-04T02:03:48.898Z,99845.73
2022-11-04T02:06:20.498Z,99837.00
2022-11-04T02:08:51.776Z,99839.63
2022-11-04T02:11:33.000Z,99842.13
2022-11-04T02:14:03.821Z,99852.58
2022-11-04T02:16:42.105Z,99841.47
2022-11-04T02:19:30.926Z,99842.41
2022-11-04T02:22:15.049Z,99832.92
2022-11-04T02:24:53.148Z,99840.66
2022-11-04T02:27:31.148Z,99844.92
2022-11-04T02:30:03.452Z,99838.05
2022-11-04T02:32:41.358Z,99843.14
2022-11-04T02:35:17.165Z,99842.15
2022-11-04T02:38:01.550Z,99839.75
2022-11-04T02:40:42.500Z,99833.84
2022-11-04T02:43:26.520Z,99839.94
2022-11-04T02:46:01.749Z,99840.04
2022-11-04T02:48:48.688Z,99839.17
2022-11-04T02:51:30.059Z,99844.33
2022-11-04T02:54:11.940Z,99840.84
2022-11-04T02:56:45.236Z,99838.27
2022-11-04T02:59:17.469Z,99845.17
2022-11-04T03:01:50.361Z,99833.08
2022-11-04T03:04:22.685Z,99843.37
2022-11-04T03:06:54.911Z,99844.25
2022-11-04T03:09:26.530Z,99838.23
2022-11-04T03:11:58.981Z,99840.80
2022-11-04T03:14:36.861Z,99843.37
2022-11-04T03:17:09.278Z,99845.89
2022-11-04T03:19:41.667Z,99838.14
2022-11-04T03:22:14.563Z,99844.14
2022-11-04T03:24:46.576Z,99836.42
2022-11-04T03:27:19.370Z,99838.22
2022-11-04T03:29:52.119Z,99837.34
2022-11-04T03:32:24.495Z,99839.94
2022-11-04T03:34:55.282Z,99834.77
2022-11-04T03:37:26.197Z,99839.94
2022-11-04T03:39:57.304Z,99840.82
2022-11-04T03:42:29.581Z,99839.08
2022-11-04T03:45:00.748Z,99842.57
2022-11-04T03:47:32.326Z,99845.95
2022-11-04T03:50:07.464Z,99848.57
2022-11-04T03:52:38.328Z,99843.41
2022-11-04T03:55:10.305Z,99843.37
2022-11-04T03:57:42.800Z,99840.00
2022-11-04T04:00:15.225Z,99845.17
2022-11-04T04:02:47.742Z,99843.26
2022-11-04T04:05:25.977Z,99855.41
2022-11-04T04:08:13.270Z,99840.82
2022-11-04T04:10:45.544Z,99843.41
2022-11-04T04:13:26.677Z,99836.52
2022-11-04T04:16:01.813Z,99839.88
2022-11-04T04:18:43.014Z,99835.59
2022-11-04T04:21:15.170Z,99843.31
2022-11-04T04:24:04.879Z,99843.20
2022-11-04T04:26:54.257Z,99846.66
2022-11-04T04:29:26.165Z,99851.68
2022-11-04T04:31:58.921Z,99850.02
2022-11-04T04:34:30.990Z,99851.83
2022-11-04T04:37:03.314Z,99855.09
2022-11-04T04:39:53.085Z,99850.96
2022-11-04T04:42:41.670Z,99857.02
2022-11-04T04:45:13.879Z,99852.68
2022-11-04T04:47:45.839Z,99856.93
2022-11-04T04:50:18.628Z,99851.76
2022-11-04T04:52:50.954Z,99853.52
2022-11-04T04:55:21.835Z,99860.38
2022-11-04T04:57:53.912Z,99853.48
2022-11-04T05:00:24.715Z,99856.85
2022-11-04T05:02:55.830Z,99862.00
2022-11-04T05:05:26.890Z,99863.69
2022-11-04T05:07:59.220Z,99866.23
2022-11-04T05:10:30.252Z,99860.97
2022-11-04T05:13:19.482Z,99862.67
2022-11-04T05:15:50.380Z,99854.89
2022-11-04T05:18:21.115Z,99854.08
2022-11-04T05:20:52.149Z,99860.13
2022-11-04T05:23:22.972Z,99859.29
2022-11-04T05:25:54.225Z,99860.13
2022-11-04T05:28:24.947Z,99858.36
2022-11-04T05:30:55.781Z,99859.13
2022-11-04T05:33:26.949Z,99872.90
2022-11-04T05:35:59.332Z,99861.63
2022-11-04T05:38:30.132Z,99868.45
2022-11-04T05:41:01.447Z,99868.41
2022-11-04T05:43:32.424Z,99872.65
2022-11-04T05:46:03.409Z,99872.58
2022-11-04T05:48:40.151Z,99876.04
2022-11-04T05:51:06.705Z,99875.11
2022-11-04T05:53:37.800Z,99877.59
2022-11-04T05:56:08.753Z,99880.95
2022-11-04T05:58:39.685Z,99880.08
2022-11-04T06:01:14.485Z,99873.94
2022-11-04T06:03:45.341Z,99880.70
2022-11-04T06:06:16.805Z,99879.72
2022-11-04T06:08:47.679Z,99874.54
2022-11-04T06:11:18.924Z,99875.30
2022-11-04T06:13:49.901Z,99876.09
2022-11-04T06:16:20.850Z,99882.92
2022-11-04T06:18:52.000Z,99879.34
2022-11-04T06:21:25.431Z,99880.97
2022-11-04T06:23:59.817Z,99883.41
2022-11-04T06:26:32.263Z,99882.57
2022-11-04T06:29:03.459Z,99880.77
2022-11-04T06:31:34.387Z,99888.48
2022-11-04T06:34:05.276Z,99885.00
2022-11-04T06:36:36.702Z,99887.56
2022-11-04T06:39:07.456Z,99899.61
2022-11-04T06:41:38.353Z,99890.02
2022-11-04T06:44:09.525Z,99889.11
2022-11-04T06:46:42.165Z,99891.56
2022-11-04T06:49:14.644Z,99896.64
2022-11-04T06:51:45.591Z,99894.94
2022-11-04T06:54:17.080Z,99897.48
2022-11-04T06:56:48.016Z,99900.05
2022-11-04T06:59:19.981Z,99901.69
2022-11-04T07:01:52.250Z,99900.77
2022-11-04T07:04:23.309Z,99900.66
2022-11-04T07:06:54.171Z,99906.48
2022-11-04T07:09:24.974Z,99906.16
2022-11-04T07:11:55.752Z,99914.87
2022-11-04T07:14:27.604Z,99914.09
2022-11-04T07:16:58.687Z,99914.17
2022-11-04T07:19:29.494Z,99918.50
2022-11-04T07:22:00.210Z,99917.66
2022-11-04T07:24:31.066Z,99922.02
2022-11-04T07:29:33.067Z,99914.20
2022-11-04T07:32:04.547Z,99920.31
2022-11-04T07:34:35.477Z,99915.13
2022-11-04T07:37:06.243Z,99916.16
2022-11-04T07:39:37.598Z,99918.75
2022-11-04T07:42:08.928Z,99905.11
2022-11-04T07:44:40.191Z,99911.19
2022-11-04T07:47:11.053Z,99909.49
2022-11-04T07:49:42.144Z,99911.25
2022-11-04T07:52:13.334Z,99913.00
2022-11-04T07:54:44.130Z,99910.33
2022-11-04T07:57:15.114Z,99913.84
2022-11-04T07:59:46.175Z,99910.39
2022-11-04T08:02:20.975Z,99915.41
2022-11-04T08:04:50.998Z,99917.94
2022-11-04T08:07:21.895Z,99921.48
2022-11-04T08:09:52.839Z,99917.24
2022-11-04T08:12:24.475Z,99919.02
2022-11-04T08:14:55.369Z,99919.11
2022-11-04T08:17:26.625Z,99913.03
2022-11-04T08:19:57.448Z,99915.63
2022-11-04T08:22:32.797Z,99915.52
2022-11-04T08:25:00.862Z,99911.05
2022-11-04T08:27:32.457Z,99903.97
2022-11-04T08:30:03.597Z,99901.13
2022-11-04T08:32:34.191Z,99899.19
2022-11-04T08:35:05.267Z,99895.58
2022-11-04T08:37:37.201Z,99894.56
2022-11-04T08:40:08.727Z,99897.84
2022-11-04T08:42:40.712Z,99902.17
2022-11-04T08:45:11.694Z,99901.24
2022-11-04T08:47:42.728Z,99894.32
2022-11-04T08:50:13.820Z,99896.89
2022-11-04T08:52:44.888Z,99895.16
2022-11-04T08:55:15.922Z,99900.34
2022-11-04T08:57:46.970Z,99896.89
2022-11-04T09:00:18.044Z,99911.38
2022-11-04T09:02:49.361Z,99903.62
2022-11-04T09:05:20.447Z,99907.14
2022-11-04T09:07:51.795Z,99907.08
2022-11-04T09:10:22.668Z,99898.48
2022-11-04T09:12:53.953Z,99905.45
2022-11-04T09:15:25.080Z,99903.59
2022-11-04T09:17:56.059Z,99908.72
2022-11-04T09:20:27.602Z,99910.29
2022-11-04T09:22:59.010Z,99904.20
2022-11-04T09:25:29.879Z,99901.58
2022-11-04T09:28:00.936Z,99903.37
2022-11-04T09:30:31.733Z,99901.67
2022-11-04T09:33:02.488Z,99899.97
2022-11-04T09:35:33.612Z,99897.50
2022-11-04T09:38:04.685Z,99903.40
2022-11-04T09:40:37.965Z,99897.44
2022-11-04T09:43:10.437Z,99897.38
2022-11-04T09:45:43.301Z,99885.97
2022-11-04T09:48:15.945Z,99897.95
2022-11-04T09:50:51.903Z,99902.34
2022-11-04T09:53:24.278Z,99886.93
2022-11-04T09:55:56.507Z,99899.08
2022-11-04T09:58:28.899Z,99892.13
2022-11-04T10:01:04.304Z,99889.36
2022-11-04T10:03:48.572Z,99886.93
2022-11-04T10:06:38.399Z,99893.95
2022-11-04T10:09:27.276Z,99898.88
2022-11-04T10:12:02.836Z,99909.36
2022-11-04T10:14:41.029Z,99906.12
2022-11-04T10:17:16.309Z,99899.39
2022-11-04T10:19:49.009Z,99908.97
2022-11-04T10:22:33.851Z,99903.81
2022-11-04T10:25:15.468Z,99909.00
2022-11-04T10:27:48.288Z,99908.16
2022-11-04T10:30:21.323Z,99906.46
2022-11-04T10:33:02.417Z,99908.25
2022-11-04T10:35:37.770Z,99906.46
2022-11-04T10:38:13.193Z,99905.66
2022-11-04T10:40:45.789Z,99907.36
2022-11-04T10:43:18.422Z,99915.05
2022-11-04T10:45:56.471Z,99907.20
2022-11-04T10:48:28.872Z,99902.11
2022-11-04T10:51:00.267Z,99896.98
2022-11-04T10:53:32.919Z,99901.33
2022-11-04T10:56:10.310Z,99896.95
2022-11-04T10:58:44.331Z,99896.89
2022-11-04T11:01:26.468Z,99896.80
2022-11-04T11:03:58.422Z,99888.91
2022-11-04T11:06:32.006Z,99886.93
2022-11-04T11:09:05.431Z,99894.36
2022-11-04T11:11:38.225Z,99896.63
2022-11-04T11:14:19.097Z,99897.36
2022-11-04T11:16:50.408Z,99904.98
2022-11-04T11:19:22.766Z,99898.89
2022-11-04T11:21:55.222Z,99901.59
2022-11-04T11:24:27.328Z,99894.86
2022-11-04T11:26:59.853Z,99903.62
2022-11-04T11:29:32.383Z,99909.11
2022-11-04T11:32:04.056Z,99908.53
2022-11-04T11:34:36.432Z,99923.17
2022-11-04T11:37:10.233Z,99907.47
2022-11-04T11:39:42.655Z,99913.69
2022-11-04T11:42:19.962Z,99915.77
2022-11-04T11:44:55.370Z,99914.70
2022-11-04T11:47:30.543Z,99915.58
2022-11-04T11:50:09.404Z,99914.80
2022-11-04T11:52:41.067Z,99922.53
2022-11-04T11:55:13.437Z,99927.72
2022-11-04T12:01:55.397Z,99927.03
2022-11-04T12:10:07.356Z,99934.29
2022-11-04T12:12:57.222Z,99937.34
2022-11-04T12:15:44.308Z,99927.95
2022-11-04T12:18:39.951Z,99924.66
2022-11-04T12:21:19.480Z,99940.24
2022-11-04T12:24:02.332Z,99933.33
2022-11-04T12:26:46.019Z,99931.63
2022-11-04T12:29:43.802Z,99935.03
2022-11-04T12:32:30.730Z,99933.28
2022-11-04T12:35:23.491Z,99931.49
2022-11-04T12:38:19.125Z,99933.14
2022-11-04T12:41:27.773Z,99929.65
2022-11-04T12:43:54.395Z,99934.86
2022-11-04T12:46:43.982Z,99938.34
2022-11-04T12:49:36.820Z,99939.30
2022-11-04T12:52:44.776Z,99940.22
2022-11-04T12:55:22.879Z,99940.27
2022-11-04T12:58:00.891Z,99943.81
2022-11-04T13:00:34.900Z,99941.36
2022-11-04T13:03:12.780Z,99941.38
2022-11-04T13:05:48.157Z,99941.36
2022-11-04T13:08:23.482Z,99947.43
2022-11-04T13:11:23.480Z,99952.69
2022-11-04T13:14:18.152Z,99947.48
2022-11-04T13:16:52.746Z,99944.02
2022-11-04T13:19:48.782Z,99949.21
2022-11-04T13:22:23.737Z,99939.70
2022-11-04T13:25:11.217Z,99947.51
2022-11-04T13:27:52.747Z,99951.02
2022-11-04T13:30:30.643Z,99947.67
2022-11-04T13:33:23.583Z,99948.42
2022-11-04T13:35:58.809Z,99960.50
2022-11-04T13:38:33.870Z,99957.91
2022-11-04T13:41:21.843Z,99965.70
2022-11-04T13:43:56.895Z,99965.68
2022-11-04T13:46:33.127Z,99957.91
2022-11-04T13:49:13.878Z,99975.29
2022-11-04T13:51:49.243Z,99971.80
2022-11-04T13:54:30.241Z,99977.91
2022-11-04T13:57:20.763Z,99975.34
2022-11-04T14:00:15.349Z,99980.52
2022-11-04T14:02:54.832Z,99976.20
2022-11-04T14:05:37.437Z,99979.69
2022-11-04T14:08:14.747Z,99982.30
2022-11-04T14:10:53.131Z,99982.28
2022-11-04T14:13:38.072Z,99987.44
2022-11-04T14:16:28.434Z,99984.89
2022-11-04T14:19:03.264Z,99988.38
2022-11-04T14:21:38.264Z,99990.11
2022-11-04T14:24:16.508Z,99987.53
2022-11-04T14:26:51.055Z,99988.38
2022-11-04T14:29:28.365Z,99989.16
2022-11-04T14:32:01.383Z,99986.52
2022-11-04T14:34:37.852Z,100000.27
2022-11-04T14:37:21.794Z,100003.75
2022-11-04T14:39:56.728Z,100002.86
2022-11-04T14:42:48.135Z,99992.50
2022-11-04T14:45:23.205Z,99995.95
2022-11-04T14:48:19.704Z,100005.41
2022-11-04T14:50:54.839Z,100008.05
2022-11-04T14:53:38.569Z,100007.16
2022-11-04T14:56:24.687Z,100011.51
2022-11-04T14:59:07.930Z,100001.03
2022-11-04T15:01:41.874Z,100006.24
2022-11-04T15:04:26.848Z,100007.98
2022-11-04T15:07:00.726Z,100008.77
2022-11-04T15:09:35.901Z,100009.70
2022-11-04T15:12:31.367Z,100020.94
2022-11-04T15:15:03.760Z,100020.88
2022-11-04T15:17:36.050Z,100025.99
2022-11-04T15:20:10.871Z,100031.13
2022-11-04T15:22:45.480Z,100029.45
2022-11-04T15:25:16.966Z,100025.12
2022-11-04T15:27:48.930Z,100030.98
2022-11-04T15:30:29.953Z,100029.48
2022-11-04T15:33:04.516Z,100027.78
2022-11-04T15:35:38.160Z,100029.50
2022-11-04T15:38:12.925Z,100033.01
2022-11-04T15:40:46.121Z,100039.90
2022-11-04T15:43:18.400Z,100037.30
2022-11-04T15:45:56.092Z,100032.96
2022-11-04T15:48:34.059Z,100045.82
2022-11-04T15:51:26.378Z,100039.80
2022-11-04T15:54:05.491Z,100035.45
2022-11-04T15:56:42.933Z,100046.66
2022-11-04T15:59:18.162Z,100045.01
2022-11-04T16:01:52.443Z,100050.29
2022-11-04T16:04:27.481Z,100046.89
2022-11-04T16:07:14.502Z,100051.16
2022-11-04T16:09:49.032Z,100064.91
2022-11-04T16:12:34.123Z,100058.91
2022-11-04T16:15:07.764Z,100058.02
2022-11-04T16:17:42.869Z,100066.61
2022-11-04T16:20:18.997Z,100064.88
2022-11-04T16:23:02.917Z,100063.99
2022-11-04T16:25:36.917Z,100063.97
2022-11-04T16:28:08.460Z,100061.37
2022-11-04T16:30:40.643Z,100067.08
2022-11-04T16:33:14.309Z,100072.57
2022-11-04T16:35:46.400Z,100072.62
2022-11-04T16:38:18.505Z,100070.02
2022-11-04T16:40:51.417Z,100079.55
2022-11-04T16:43:23.635Z,100081.31
2022-11-04T16:45:55.942Z,100077.87
2022-11-04T16:48:28.476Z,100083.03
2022-11-04T16:51:00.855Z,100088.17
2022-11-04T16:53:32.855Z,100083.90
2022-11-04T16:56:04.880Z,100080.44
2022-11-04T16:58:37.187Z,100083.95
2022-11-04T17:01:10.343Z,100086.54
2022-11-04T17:03:43.812Z,100096.89
2022-11-04T17:06:16.636Z,100099.45
2022-11-04T17:08:48.992Z,100095.20
2022-11-04T17:11:21.168Z,100103.03
2022-11-04T17:13:53.176Z,100097.84
2022-11-04T17:16:25.377Z,100103.03
2022-11-04T17:18:58.208Z,100090.05
2022-11-04T17:21:30.237Z,100101.37
2022-11-04T17:24:02.342Z,100097.09
2022-11-04T17:26:34.600Z,100098.80
2022-11-04T17:29:06.598Z,100110.03
2022-11-04T17:31:38.655Z,100098.80
2022-11-04T17:34:10.977Z,100107.42
2022-11-04T17:36:43.611Z,100103.08
2022-11-04T17:39:16.029Z,100099.67
2022-11-04T17:42:06.429Z,100107.42
2022-11-04T17:44:38.440Z,100110.02
2022-11-04T17:47:10.503Z,100102.22
2022-11-04T17:49:42.559Z,100103.94
2022-11-04T17:52:14.495Z,100107.40
2022-11-04T17:54:46.403Z,100109.99
2022-11-04T17:57:18.982Z,100117.69
2022-11-04T17:59:51.055Z,100115.97
2022-11-04T18:02:23.107Z,100122.06
2022-11-04T18:04:55.421Z,100115.22
2022-11-04T18:07:27.365Z,100124.72
2022-11-04T18:09:59.577Z,100128.16
2022-11-04T18:12:40.871Z,100120.38
2022-11-04T18:15:17.401Z,100122.90
2022-11-04T18:17:50.889Z,100125.55
2022-11-04T18:20:22.764Z,100121.17
2022-11-04T18:22:55.047Z,100122.06
2022-11-04T18:25:26.996Z,100120.36
2022-11-04T18:27:58.939Z,100122.06
2022-11-04T18:30:31.096Z,100131.56
2022-11-04T18:33:03.527Z,100127.25
2022-11-04T18:35:36.571Z,100133.33
2022-11-04T18:38:08.781Z,100130.77
2022-11-04T18:40:40.822Z,100130.77
2022-11-04T18:43:13.073Z,100129.84
2022-11-04T18:45:45.301Z,100135.86
2022-11-04T18:48:17.592Z,100142.80
2022-11-04T18:50:49.680Z,100143.64
2022-11-04T18:53:26.711Z,100144.51
2022-11-04T18:55:55.377Z,100147.08
2022-11-04T18:58:27.718Z,100148.78
2022-11-04T19:00:59.858Z,100147.97
2022-11-04T19:03:31.988Z,100144.53
2022-11-04T19:06:12.840Z,100154.88
2022-11-04T19:08:46.891Z,100150.58
2022-11-04T19:11:24.989Z,100148.92
2022-11-04T19:14:08.063Z,100152.40
2022-11-04T19:16:36.529Z,100151.52
2022-11-04T19:19:12.123Z,100153.26
2022-11-04T19:21:44.012Z,100153.26
2022-11-04T19:24:15.926Z,100159.31
2022-11-04T19:26:47.839Z,100154.10
2022-11-04T19:29:19.707Z,100160.10
2022-11-04T19:31:51.699Z,100155.83
2022-11-04T19:34:23.686Z,100162.72
2022-11-04T19:36:56.299Z,100164.44
2022-11-04T19:39:28.169Z,100164.36
2022-11-04T19:42:17.965Z,100167.84
2022-11-04T19:44:50.481Z,100166.06
2022-11-04T19:47:22.572Z,100176.44
2022-11-04T19:49:55.593Z,100179.87
2022-11-04T19:52:27.632Z,100185.04
2022-11-04T19:54:59.557Z,100175.58
2022-11-04T19:57:34.266Z,100174.69
2022-11-04T20:00:06.717Z,100185.08
2022-11-04T20:02:44.480Z,100189.47
2022-11-04T20:05:16.743Z,100182.62
2022-11-04T20:07:50.280Z,100180.84
2022-11-04T20:10:25.344Z,100191.23
2022-11-04T20:13:01.918Z,100194.69
2022-11-04T20:15:34.173Z,100198.98
2022-11-04T20:18:06.185Z,100209.36
2022-11-04T20:20:38.472Z,100214.53
2022-11-04T20:23:10.637Z,100215.47
2022-11-04T20:25:42.506Z,100216.34
2022-11-04T20:28:14.595Z,100202.52
2022-11-04T20:30:46.675Z,100212.08
2022-11-04T20:33:18.710Z,100209.47
2022-11-04T20:35:51.626Z,100204.34
2022-11-04T20:38:23.893Z,100207.80
2022-11-04T20:40:56.063Z,100204.38
2022-11-04T20:43:28.382Z,100213.92
2022-11-04T20:46:05.373Z,100214.75
2022-11-04T20:48:38.463Z,100210.45
2022-11-04T20:51:15.775Z,100209.63
2022-11-04T20:53:48.006Z,100213.94
2022-11-04T20:56:20.842Z,100210.47
2022-11-04T20:58:58.794Z,100213.04
2022-11-04T21:01:30.884Z,100220.80
2022-11-04T21:04:08.290Z,100226.87
2022-11-04T21:06:41.031Z,100224.27
2022-11-04T21:09:15.141Z,100223.39
2022-11-04T21:11:48.200Z,100232.02
2022-11-04T21:14:20.567Z,100224.23
2022-11-04T21:16:53.996Z,100227.69
2022-11-04T21:19:26.165Z,100225.98
2022-11-04T21:21:58.393Z,100234.61
2022-11-04T21:24:36.369Z,100225.95
2022-11-04T21:27:05.863Z,100231.95
2022-11-04T21:29:38.243Z,100230.22
2022-11-04T21:32:10.185Z,100235.38
2022-11-04T21:34:42.130Z,100240.61
2022-11-04T21:37:14.321Z,100236.34
2022-11-04T21:39:46.998Z,100246.75
2022-11-04T21:42:18.936Z,100252.83
2022-11-04T21:44:50.936Z,100249.46
2022-11-04T21:47:23.116Z,100246.87
2022-11-04T21:49:55.162Z,100251.23
2022-11-04T21:52:27.218Z,100254.66
2022-11-04T21:54:59.301Z,100255.56
2022-11-04T21:57:32.632Z,100252.10
2022-11-04T22:00:09.290Z,100257.28
2022-11-04T22:02:47.321Z,100263.34
2022-11-04T22:05:19.593Z,100255.59
2022-11-04T22:08:09.247Z,100259.05
2022-11-04T22:10:41.315Z,100259.06
2022-11-04T22:13:13.559Z,100260.79
2022-11-04T22:16:00.966Z,100260.79
2022-11-04T22:18:34.656Z,100262.53
2022-11-04T22:21:08.972Z,100255.58
2022-11-04T22:23:40.975Z,100260.76
2022-11-04T22:26:18.428Z,100262.45
2022-11-04T22:28:53.185Z,100265.05
2022-11-04T22:31:27.694Z,100265.00
2022-11-04T22:34:00.857Z,100260.74
2022-11-04T22:36:34.807Z,100267.71
2022-11-04T22:39:11.974Z,100268.63
2022-11-04T22:41:40.730Z,100266.89
2022-11-04T22:44:13.053Z,100272.05
2022-11-04T22:46:45.252Z,100281.58
2022-11-04T22:49:17.238Z,100279.00
2022-11-04T22:51:49.314Z,100277.25
2022-11-04T22:54:21.384Z,100267.77
2022-11-04T22:56:53.365Z,100277.25
2022-11-04T22:59:25.639Z,100273.80
2022-11-04T23:01:57.692Z,100274.66
2022-11-04T23:04:29.984Z,100273.81
2022-11-04T23:07:01.870Z,100283.29
2022-11-04T23:09:34.227Z,100280.70
2022-11-04T23:12:24.379Z,100280.70
2022-11-04T23:15:00.910Z,100284.97
2022-11-04T23:17:51.106Z,100295.33
2022-11-04T23:20:24.824Z,100301.39
2022-11-04T23:23:14.794Z,100304.83
2022-11-04T23:25:46.779Z,100285.86
2022-11-04T23:28:36.756Z,100296.23
2022-11-04T23:31:08.805Z,100307.41
2022-11-04T23:33:58.513Z,100304.81
2022-11-04T23:36:47.924Z,100309.17
2022-11-04T23:39:19.941Z,100305.70
2022-11-04T23:42:09.662Z,100300.51
2022-11-04T23:44:59.289Z,100303.10
2022-11-04T23:47:52.619Z,100300.50
2022-11-04T23:50:44.053Z,100301.31
2022-11-04T23:53:36.148Z,100310.83
2022-11-04T23:56:29.078Z,100317.72
2022-11-04T23:59:18.768Z,100311.66
